KCXP

Carson Airport

Carson City, Nevada, USA
KCXP 160540Z 1606/1706 VRB03KT P6SM FEW080 SCT150 BKN220 FM161600 17007KT P6SM SCT130 BKN200 FM162100 19011G22KT P6SM FEW050 SCT120 BKN200 FM170300 18010G18KT P6SM VCSH OVC050
Issued Valid From Valid To
Dec-16 @ 05:40 UTC
(45 minutes ago)
Dec-16 @ 06:00 UTC
(25 minutes ago)
Dec-17 @ 06:00 UTC
(in 24 hours)
Dec-16 @ 06:00 to Dec-16 @ 16:00
KCXP 160540Z 1606/1706 VRB03KT P6SM FEW080 SCT150 BKN220
Wind Visibility Clouds
Variable at 3 knots Greater than 6 miles
  • Few at 8,000' AGL
  • Scattered at 15,000' AGL
  • Broken at 22,000' AGL
From Dec-16 @ 16:00 to Dec-16 @ 21:00
FM161600 17007KT P6SM SCT130 BKN200
Wind Visibility Clouds
170° at 7 knots Greater than 6 miles
  • Scattered at 13,000' AGL
  • Broken at 20,000' AGL
From Dec-16 @ 21:00 to Dec-17 @ 03:00
FM162100 19011G22KT P6SM FEW050 SCT120 BKN200
Wind Visibility Clouds
190° at 11 knots
 Gusting to 22 knots
Greater than 6 miles
  • Few at 5,000' AGL
  • Scattered at 12,000' AGL
  • Broken at 20,000' AGL
From Dec-17 @ 03:00 to Dec-17 @ 06:00
FM170300 18010G18KT P6SM VCSH OVC050
Wind Visibility Clouds
180° at 10 knots
 Gusting to 18 knots
Greater than 6 miles
  • Overcast at 5,000' AGL
KCXP 160540Z 1606/1706 VRB03KT P6SM FEW080 SCT150 BKN220 FM161600 17007KT P6SM SCT130 BKN200 FM162100 19011G22KT P6SM FEW050 SCT120 BKN200 FM170300 18010G18KT P6SM VCSH OVC050
Issued Dec-16 @ 05:40 UTC
(45 minutes ago)
Valid From Dec-16 @ 06:00 UTC
(25 minutes ago)
Valid To Dec-17 @ 06:00 UTC
(in 24 hours)
Dec-16 @ 06:00 - Dec-16 @ 16:00
Wind Visibility
Variable at 3 knots Greater than 6 miles
Clouds
  • Few at 8,000' AGL
  • Scattered at 15,000' AGL
  • Broken at 22,000' AGL
From Dec-16 @ 16:00 - Dec-16 @ 21:00
Wind Visibility
170° at 7 knots Greater than 6 miles
Clouds
  • Scattered at 13,000' AGL
  • Broken at 20,000' AGL
From Dec-16 @ 21:00 - Dec-17 @ 03:00
Wind Visibility
190° at 11 knots
 Gusting to 22 knots
Greater than 6 miles
Clouds
  • Few at 5,000' AGL
  • Scattered at 12,000' AGL
  • Broken at 20,000' AGL
From Dec-17 @ 03:00 - Dec-17 @ 06:00
Wind Visibility
180° at 10 knots
 Gusting to 18 knots
Greater than 6 miles
Clouds
  • Overcast at 5,000' AGL